createdAt,value
2023-02-24T00:02:15.689Z,32.72
2023-02-24T00:07:18.744Z,26.55
2023-02-24T00:12:20.301Z,25.90
2023-02-24T00:17:21.869Z,28.42
2023-02-24T00:22:23.442Z,25.50
2023-02-24T00:27:25.023Z,27.50
2023-02-24T00:32:26.832Z,28.55
2023-02-24T00:37:28.541Z,25.55
2023-02-24T00:42:30.082Z,39.40
2023-02-24T00:47:31.602Z,43.28
2023-02-24T00:52:33.286Z,45.03
2023-02-24T00:57:34.815Z,35.10
2023-02-24T01:02:36.505Z,36.85
2023-02-24T01:07:38.241Z,24.15
2023-02-24T01:12:39.925Z,19.95
2023-02-24T01:17:41.540Z,21.95
2023-02-24T01:22:48.799Z,17.13
2023-02-24T01:27:50.921Z,22.55
2023-02-24T01:32:52.782Z,28.75
2023-02-24T01:37:54.534Z,20.85
2023-02-24T01:42:56.096Z,24.15
2023-02-24T01:48:02.937Z,21.95
2023-02-24T01:53:07.355Z,27.85
2023-02-24T01:58:18.145Z,24.58
2023-02-24T02:03:33.820Z,30.63
2023-02-24T02:08:39.135Z,27.73
2023-02-24T02:13:44.329Z,29.13
2023-02-24T02:18:52.819Z,26.70
2023-02-24T02:24:38.001Z,31.30
2023-02-24T02:30:05.747Z,22.10
2023-02-24T02:35:10.349Z,28.75
2023-02-24T02:40:28.629Z,27.30
2023-02-24T02:45:42.737Z,24.83
2023-02-24T02:50:50.109Z,27.42
2023-02-24T02:56:19.569Z,29.27
2023-02-24T03:01:25.008Z,37.95
2023-02-24T03:06:32.198Z,32.25
2023-02-24T03:11:33.813Z,32.70
2023-02-24T03:16:36.044Z,40.10
2023-02-24T03:21:46.653Z,40.17
2023-02-24T03:26:52.979Z,39.60
2023-02-24T03:32:19.465Z,31.15
2023-02-24T03:37:21.905Z,33.55
2023-02-24T03:42:28.393Z,36.72
2023-02-24T03:47:33.052Z,35.85
2023-02-24T03:53:08.055Z,36.67
2023-02-24T03:58:43.968Z,41.88
2023-02-24T04:04:09.890Z,35.88
2023-02-24T04:09:44.895Z,36.17
2023-02-24T04:15:11.219Z,34.92
2023-02-24T04:20:15.822Z,45.72
2023-02-24T04:25:25.955Z,42.92
2023-02-24T04:30:36.211Z,42.45
2023-02-24T04:35:39.005Z,43.17
2023-02-24T04:40:40.745Z,42.90
2023-02-24T04:45:42.568Z,44.97
2023-02-24T04:50:44.427Z,35.42
2023-02-24T04:55:47.843Z,31.52
2023-02-24T05:00:51.927Z,43.53
2023-02-24T05:05:56.527Z,28.80
2023-02-24T05:10:58.150Z,28.08
2023-02-24T05:16:05.051Z,25.33
2023-02-24T05:21:09.421Z,26.50
2023-02-24T05:26:14.479Z,23.20
2023-02-24T05:31:20.829Z,17.70
2023-02-24T05:36:22.668Z,20.02
2023-02-24T05:41:26.928Z,25.25
2023-02-24T05:46:30.313Z,34.25
2023-02-24T05:51:33.087Z,30.25
2023-02-24T05:56:37.283Z,29.40
2023-02-24T06:01:41.347Z,32.55
2023-02-24T06:06:43.137Z,19.45
2023-02-24T06:11:45.401Z,22.95
2023-02-24T06:16:47.123Z,19.55
2023-02-24T06:21:48.791Z,21.55
2023-02-24T06:26:50.489Z,15.75
2023-02-24T06:31:52.208Z,13.20
2023-02-24T06:36:53.915Z,12.45
2023-02-24T06:41:55.433Z,18.73
2023-02-24T06:46:57.959Z,14.00
2023-02-24T06:51:59.940Z,20.63
2023-02-24T06:57:01.978Z,17.10
2023-02-24T07:02:03.647Z,16.92
2023-02-24T07:07:05.250Z,16.98
2023-02-24T07:12:07.024Z,15.27
2023-02-24T07:17:08.800Z,13.65
2023-02-24T07:22:10.861Z,14.52
2023-02-24T07:27:16.930Z,12.88
2023-02-24T07:32:18.584Z,13.33
2023-02-24T07:37:20.324Z,20.05
2023-02-24T07:42:21.969Z,11.80
2023-02-24T07:47:29.230Z,10.55
2023-02-24T07:52:30.852Z,13.45
2023-02-24T07:57:32.435Z,17.80
2023-02-24T08:02:33.999Z,9.10
2023-02-24T08:07:35.573Z,10.48
2023-02-24T08:12:40.487Z,12.43
2023-02-24T08:17:41.998Z,14.30
2023-02-24T08:22:45.470Z,10.43
2023-02-24T08:27:58.465Z,9.55
2023-02-24T08:33:10.430Z,10.23
2023-02-24T08:38:20.010Z,16.08
2023-02-24T08:43:30.778Z,11.02
2023-02-24T08:48:39.125Z,13.70
2023-02-24T08:53:40.872Z,12.52
2023-02-24T08:58:45.456Z,12.48
2023-02-24T09:03:49.338Z,11.93
2023-02-24T09:08:53.748Z,8.52
2023-02-24T09:13:55.354Z,12.95
2023-02-24T09:18:56.871Z,17.25
2023-02-24T09:23:59.761Z,15.93
2023-02-24T09:29:01.339Z,20.42
2023-02-24T09:34:02.988Z,14.35
2023-02-24T09:39:04.538Z,15.40
2023-02-24T09:44:17.181Z,16.70
2023-02-24T09:49:20.725Z,19.88
2023-02-24T09:54:22.652Z,10.32
2023-02-24T09:59:36.179Z,16.33
2023-02-24T10:04:49.971Z,7.28
2023-02-24T10:10:20.130Z,12.85
2023-02-24T10:15:44.691Z,12.82
2023-02-24T10:20:46.572Z,9.73
2023-02-24T10:25:53.771Z,13.68
2023-02-24T10:31:11.019Z,8.35
2023-02-24T10:36:22.110Z,7.28
2023-02-24T10:41:24.208Z,9.18
2023-02-24T10:46:40.695Z,6.38
2023-02-24T10:51:54.069Z,8.30
2023-02-24T10:56:55.712Z,12.75
2023-02-24T11:02:19.338Z,9.90
2023-02-24T11:07:21.522Z,10.25
2023-02-24T11:12:24.659Z,7.75
2023-02-24T11:17:26.298Z,7.60
2023-02-24T11:22:32.736Z,9.55
2023-02-24T11:27:34.832Z,7.15
2023-02-24T11:32:39.469Z,8.88
2023-02-24T11:37:43.686Z,10.07
2023-02-24T11:43:02.941Z,9.18
2023-02-24T11:48:22.527Z,8.35
2023-02-24T11:53:32.253Z,11.98
2023-02-24T11:58:41.081Z,7.88
2023-02-24T12:04:01.406Z,12.05
2023-02-24T12:09:18.385Z,11.07
2023-02-24T12:19:35.134Z,13.95
2023-02-24T12:24:37.468Z,20.83
2023-02-24T12:29:54.022Z,13.95
2023-02-24T12:35:27.414Z,7.45
2023-02-24T12:40:53.558Z,14.07
2023-02-24T12:46:05.337Z,9.95
2023-02-24T12:51:29.008Z,13.15
2023-02-24T12:56:51.973Z,8.80
2023-02-24T13:02:23.116Z,9.93
2023-02-24T13:07:39.787Z,9.77
2023-02-24T13:13:00.271Z,13.18
2023-02-24T13:18:02.318Z,11.23
2023-02-24T13:23:20.008Z,12.70
2023-02-24T13:28:30.712Z,11.80
2023-02-24T13:33:39.676Z,12.98
2023-02-24T13:38:46.921Z,10.27
2023-02-24T13:44:00.955Z,9.13
2023-02-24T13:49:26.682Z,10.90
2023-02-24T13:54:59.122Z,17.38
2023-02-24T14:00:15.894Z,12.70
2023-02-24T14:05:26.524Z,13.07
2023-02-24T14:10:30.820Z,10.75
2023-02-24T14:15:34.130Z,11.20
2023-02-24T14:20:36.739Z,17.02
2023-02-24T14:25:39.000Z,20.00
2023-02-24T14:30:41.195Z,15.38
2023-02-24T14:35:46.493Z,12.57
2023-02-24T14:40:48.852Z,13.82
2023-02-24T14:45:52.255Z,15.93
2023-02-24T14:50:58.004Z,12.18
2023-02-24T14:56:04.000Z,13.25
2023-02-24T15:01:20.037Z,12.52
2023-02-24T15:06:30.844Z,15.55
2023-02-24T15:11:33.304Z,13.18
2023-02-24T15:16:47.194Z,21.38
2023-02-24T15:21:48.764Z,16.58
2023-02-24T15:26:59.344Z,18.05
2023-02-24T15:32:03.917Z,12.90
2023-02-24T15:37:20.583Z,9.88
2023-02-24T15:42:28.077Z,17.05
2023-02-24T15:47:44.092Z,14.20
2023-02-24T15:52:45.998Z,8.38
2023-02-24T15:57:55.568Z,12.77
2023-02-24T16:02:58.108Z,14.48
2023-02-24T16:07:59.752Z,14.00
2023-02-24T16:13:02.077Z,18.02
2023-02-24T16:18:04.041Z,12.15
2023-02-24T16:23:06.037Z,13.82
2023-02-24T16:28:13.799Z,13.30
2023-02-24T16:33:18.536Z,20.20
2023-02-24T16:38:21.464Z,12.20
2023-02-24T16:43:23.285Z,13.15
2023-02-24T16:48:26.819Z,11.52
2023-02-24T16:53:28.479Z,10.20
2023-02-24T16:58:30.533Z,12.88
2023-02-24T17:03:41.544Z,12.85
2023-02-24T17:08:43.206Z,13.55
2023-02-24T17:13:45.057Z,14.35
2023-02-24T17:18:46.718Z,18.40
2023-02-24T17:23:48.306Z,23.10
2023-02-24T17:28:54.037Z,16.17
2023-02-24T17:33:55.539Z,15.27
2023-02-24T17:38:57.123Z,13.75
2023-02-24T17:43:58.782Z,18.50
2023-02-24T17:49:00.272Z,16.63
2023-02-24T17:54:01.918Z,17.02
2023-02-24T17:59:03.605Z,14.60
2023-02-24T18:04:05.195Z,16.92
2023-02-24T18:09:06.773Z,14.55
2023-02-24T18:14:08.431Z,19.13
2023-02-24T18:19:10.136Z,17.30
2023-02-24T18:24:12.544Z,14.85
2023-02-24T18:29:14.299Z,15.75
2023-02-24T18:34:15.842Z,11.20
2023-02-24T18:39:17.378Z,13.60
2023-02-24T18:44:19.117Z,11.93
2023-02-24T18:49:20.696Z,18.88
2023-02-24T18:54:22.425Z,16.33
2023-02-24T18:59:24.102Z,21.17
2023-02-24T19:04:25.637Z,22.73
2023-02-24T19:09:27.363Z,24.52
2023-02-24T19:14:28.966Z,23.38
2023-02-24T19:19:30.465Z,21.13
2023-02-24T19:24:32.061Z,24.05
2023-02-24T19:29:33.856Z,23.90
2023-02-24T19:34:36.831Z,23.27
2023-02-24T19:39:38.417Z,21.15
2023-02-24T19:44:39.941Z,13.85
2023-02-24T19:49:41.650Z,10.85
2023-02-24T19:54:43.354Z,15.15
2023-02-24T19:59:44.966Z,8.93
2023-02-24T20:04:46.594Z,9.85
2023-02-24T20:09:48.658Z,9.02
2023-02-24T20:14:50.250Z,8.07
2023-02-24T20:19:51.821Z,6.72
2023-02-24T20:24:53.488Z,12.13
2023-02-24T20:29:56.033Z,6.75
2023-02-24T20:34:57.749Z,5.18
2023-02-24T20:39:59.407Z,9.60
2023-02-24T20:45:01.011Z,7.45
2023-02-24T20:50:03.002Z,12.68
2023-02-24T20:55:04.918Z,14.73
2023-02-24T21:00:07.244Z,10.63
2023-02-24T21:05:10.188Z,13.60
2023-02-24T21:10:12.198Z,18.15
2023-02-24T21:15:13.776Z,12.43
2023-02-24T21:20:15.573Z,11.43
2023-02-24T21:25:17.150Z,10.30
2023-02-24T21:30:18.965Z,13.15
2023-02-24T21:35:20.598Z,10.43
2023-02-24T21:40:22.138Z,11.48
2023-02-24T21:45:23.654Z,6.03
2023-02-24T21:50:25.295Z,13.65
2023-02-24T21:55:26.940Z,14.52
2023-02-24T22:00:28.482Z,10.85
2023-02-24T22:05:31.670Z,14.40
2023-02-24T22:10:58.061Z,12.73
2023-02-24T22:16:01.089Z,13.85
2023-02-24T22:21:08.205Z,11.57
2023-02-24T22:26:12.087Z,16.13
2023-02-24T22:31:17.075Z,15.75
2023-02-24T22:36:23.044Z,12.05
2023-02-24T22:41:27.740Z,12.95
2023-02-24T22:46:35.898Z,11.63
2023-02-24T22:51:38.377Z,11.85
2023-02-24T22:56:40.198Z,18.08
2023-02-24T23:01:42.301Z,13.60
2023-02-24T23:06:44.531Z,19.17
2023-02-24T23:11:46.480Z,13.00
2023-02-24T23:16:52.057Z,11.82
2023-02-24T23:21:54.401Z,11.93
2023-02-24T23:26:58.453Z,12.50
2023-02-24T23:32:00.444Z,15.65
2023-02-24T23:37:02.839Z,13.63
2023-02-24T23:42:05.228Z,16.48
2023-02-24T23:47:07.929Z,15.88
2023-02-24T23:52:09.914Z,14.10
2023-02-24T23:57:11.726Z,10.82
